To NAV CANADA Home Page Login to a new session Search on AWWS site Feedback and Comments Disclaimer Vers la page française équivalente Tips FAQ What's new on the site To the Forecasts and Observations / NOTAM section To "File a Flight Plan" website Publications and other links Update of the User's profile FIC Telephone Numbers My Weather Data Folder Route Weather Data Regional Weather Data Local Weather Data To the Forecasts and Observations / NOTAM section
Request Generated 02/24/2017 at 03:36:49 UTC . Weather information available at that time is displayed.

METAR/TAF

LLOYDMINSTER/AB    (show WxCam)

METAR CYLL 240300Z 20006KT 15SM BKN090 M09/M11 A3006 RMK AC6 SLP229=
METAR CYLL 240200Z 20003KT 15SM FEW170 FEW260 M08/M11 A3005 RMK
AC1CI1 SLP228=
METAR CYLL 240100Z 00000KT 15SM FEW020 FEW170 SCT260 M07/M11 A3005
RMK SC1AC1CI2 SLP225=

TAF CYLL 232349Z 2400/2412 31006KT P6SM FEW020 BKN260
BECMG 2404/2406 FEW012 BKN030
FM240600 VRB03KT P6SM SCT012 BKN030 TEMPO 2408/2412 5SM -SN
BKN012
RMK NXT FCST BY 240600Z=
Your time UTC time
Weather data provided by Environment Canada and NAV CANADA